sensor_id;sensor_type;location;lat;lon;timestamp;temperature;humidity
18511;DHT22;9384;48.044;11.616;2022-09-04T00:34:12;11.60;99.90
18511;DHT22;9384;48.044;11.616;2022-09-04T00:36:46;11.70;99.90
18511;DHT22;9384;48.044;11.616;2022-09-04T00:39:18;11.70;99.90
18511;DHT22;9384;48.044;11.616;2022-09-04T00:41:57;11.70;99.90
18511;DHT22;9384;48.044;11.616;2022-09-04T00:44:41;11.70;99.90
18511;DHT22;9384;48.044;11.616;2022-09-04T00:47:39;11.70;99.90
18511;DHT22;9384;48.044;11.616;2022-09-04T00:50:45;11.70;99.90
18511;DHT22;9384;48.044;11.616;2022-09-04T00:56:45;11.70;99.90
18511;DHT22;9384;48.044;11.616;2022-09-04T00:59:26;11.70;99.90
18511;DHT22;9384;48.044;11.616;2022-09-04T01:02:07;11.70;99.90
18511;DHT22;9384;48.044;11.616;2022-09-04T01:04:42;11.70;99.90
18511;DHT22;9384;48.044;11.616;2022-09-04T01:07:22;11.70;99.90
18511;DHT22;9384;48.044;11.616;2022-09-04T01:10:11;11.70;99.90
18511;DHT22;9384;48.044;11.616;2022-09-04T01:12:48;11.70;99.90
18511;DHT22;9384;48.044;11.616;2022-09-04T01:15:22;11.70;99.90
18511;DHT22;9384;48.044;11.616;2022-09-04T01:18:01;11.70;99.90
18511;DHT22;9384;48.044;11.616;2022-09-04T01:20:52;11.70;99.90
18511;DHT22;9384;48.044;11.616;2022-09-04T01:23:35;11.70;99.90
18511;DHT22;9384;48.044;11.616;2022-09-04T01:26:14;11.70;99.90
18511;DHT22;9384;48.044;11.616;2022-09-04T01:28:51;11.70;99.90
18511;DHT22;9384;48.044;11.616;2022-09-04T01:31:25;11.80;99.90
18511;DHT22;9384;48.044;11.616;2022-09-04T01:34:07;11.80;99.90
18511;DHT22;9384;48.044;11.616;2022-09-04T01:36:40;11.80;99.90
18511;DHT22;9384;48.044;11.616;2022-09-04T01:39:09;11.80;99.90
18511;DHT22;9384;48.044;11.616;2022-09-04T01:41:42;11.80;99.90
18511;DHT22;9384;48.044;11.616;2022-09-04T01:44:11;11.80;99.90
18511;DHT22;9384;48.044;11.616;2022-09-04T01:46:45;11.80;99.90
18511;DHT22;9384;48.044;11.616;2022-09-04T01:49:22;11.80;99.90
18511;DHT22;9384;48.044;11.616;2022-09-04T01:51:56;11.80;99.90
18511;DHT22;9384;48.044;11.616;2022-09-04T01:54:42;11.90;99.90
18511;DHT22;9384;48.044;11.616;2022-09-04T01:57:28;11.80;99.90
18511;DHT22;9384;48.044;11.616;2022-09-04T02:00:04;11.80;99.90
18511;DHT22;9384;48.044;11.616;2022-09-04T02:02:44;11.80;99.90
18511;DHT22;9384;48.044;11.616;2022-09-04T02:05:24;11.80;99.90
18511;DHT22;9384;48.044;11.616;2022-09-04T02:08:03;11.80;99.90
18511;DHT22;9384;48.044;11.616;2022-09-04T02:10:36;11.80;99.90
18511;DHT22;9384;48.044;11.616;2022-09-04T02:13:12;11.80;99.90
18511;DHT22;9384;48.044;11.616;2022-09-04T02:15:46;11.80;99.90
18511;DHT22;9384;48.044;11.616;2022-09-04T02:18:22;11.80;99.90
18511;DHT22;9384;48.044;11.616;2022-09-04T02:21:00;11.80;99.90
18511;DHT22;9384;48.044;11.616;2022-09-04T02:23:35;11.80;99.90
18511;DHT22;9384;48.044;11.616;2022-09-04T02:26:12;11.80;99.90
18511;DHT22;9384;48.044;11.616;2022-09-04T02:28:51;11.80;99.90
18511;DHT22;9384;48.044;11.616;2022-09-04T02:31:28;11.80;99.90
18511;DHT22;9384;48.044;11.616;2022-09-04T02:34:03;11.80;99.90
18511;DHT22;9384;48.044;11.616;2022-09-04T02:36:38;11.80;99.90
18511;DHT22;9384;48.044;11.616;2022-09-04T02:39:16;11.80;99.90
18511;DHT22;9384;48.044;11.616;2022-09-04T02:41:54;11.80;99.90
18511;DHT22;9384;48.044;11.616;2022-09-04T02:44:39;11.80;99.90
18511;DHT22;9384;48.044;11.616;2022-09-04T02:47:16;11.80;99.90
18511;DHT22;9384;48.044;11.616;2022-09-04T02:49:53;11.80;99.90
18511;DHT22;9384;48.044;11.616;2022-09-04T02:52:42;11.80;99.90
18511;DHT22;9384;48.044;11.616;2022-09-04T02:55:19;11.80;99.90
18511;DHT22;9384;48.044;11.616;2022-09-04T02:57:55;11.80;99.90
18511;DHT22;9384;48.044;11.616;2022-09-04T03:00:35;11.80;99.90
18511;DHT22;9384;48.044;11.616;2022-09-04T03:03:08;11.80;99.90
18511;DHT22;9384;48.044;11.616;2022-09-04T03:05:40;11.80;99.90
18511;DHT22;9384;48.044;11.616;2022-09-04T03:08:14;11.80;99.90
18511;DHT22;9384;48.044;11.616;2022-09-04T03:10:45;11.80;99.90
18511;DHT22;9384;48.044;11.616;2022-09-04T03:13:18;11.80;99.90
18511;DHT22;9384;48.044;11.616;2022-09-04T03:15:50;11.70;99.90
18511;DHT22;9384;48.044;11.616;2022-09-04T03:18:23;11.70;99.90
18511;DHT22;9384;48.044;11.616;2022-09-04T03:20:55;11.70;99.90
18511;DHT22;9384;48.044;11.616;2022-09-04T03:23:31;11.70;99.90
18511;DHT22;9384;48.044;11.616;2022-09-04T03:26:15;11.80;99.90
18511;DHT22;9384;48.044;11.616;2022-09-04T03:28:57;11.80;99.90
18511;DHT22;9384;48.044;11.616;2022-09-04T03:31:32;11.80;99.90
18511;DHT22;9384;48.044;11.616;2022-09-04T03:34:19;11.80;99.90
18511;DHT22;9384;48.044;11.616;2022-09-04T03:37:02;11.80;99.90
18511;DHT22;9384;48.044;11.616;2022-09-04T03:39:39;11.90;99.90
18511;DHT22;9384;48.044;11.616;2022-09-04T03:42:17;11.90;99.90
18511;DHT22;9384;48.044;11.616;2022-09-04T03:44:55;11.90;99.90
18511;DHT22;9384;48.044;11.616;2022-09-04T03:47:32;11.90;99.90
18511;DHT22;9384;48.044;11.616;2022-09-04T03:50:09;11.90;99.90
18511;DHT22;9384;48.044;11.616;2022-09-04T03:52:45;11.90;99.90
18511;DHT22;9384;48.044;11.616;2022-09-04T03:55:56;11.90;99.90
18511;DHT22;9384;48.044;11.616;2022-09-04T03:58:34;11.90;99.90
18511;DHT22;9384;48.044;11.616;2022-09-04T04:01:18;11.90;99.90
18511;DHT22;9384;48.044;11.616;2022-09-04T04:04:00;12.00;99.90
18511;DHT22;9384;48.044;11.616;2022-09-04T04:06:37;11.90;99.90
18511;DHT22;9384;48.044;11.616;2022-09-04T04:09:33;11.90;99.90
18511;DHT22;9384;48.044;11.616;2022-09-04T04:12:14;11.90;99.90
18511;DHT22;9384;48.044;11.616;2022-09-04T04:15:01;11.80;99.90
18511;DHT22;9384;48.044;11.616;2022-09-04T04:20:33;11.80;99.90
18511;DHT22;9384;48.044;11.616;2022-09-04T04:26:07;11.80;99.90
18511;DHT22;9384;48.044;11.616;2022-09-04T04:28:57;11.80;99.90
18511;DHT22;9384;48.044;11.616;2022-09-04T04:31:40;11.80;99.90
18511;DHT22;9384;48.044;11.616;2022-09-04T04:34:15;11.90;99.90
18511;DHT22;9384;48.044;11.616;2022-09-04T04:36:50;11.80;99.90
18511;DHT22;9384;48.044;11.616;2022-09-04T04:39:25;11.80;99.90
18511;DHT22;9384;48.044;11.616;2022-09-04T04:42:11;11.80;99.90
18511;DHT22;9384;48.044;11.616;2022-09-04T04:44:55;11.90;99.90
18511;DHT22;9384;48.044;11.616;2022-09-04T04:47:58;11.80;99.90
18511;DHT22;9384;48.044;11.616;2022-09-04T04:50:39;11.80;99.90
18511;DHT22;9384;48.044;11.616;2022-09-04T04:53:15;11.80;99.90
18511;DHT22;9384;48.044;11.616;2022-09-04T04:55:52;11.80;99.90
18511;DHT22;9384;48.044;11.616;2022-09-04T04:58:35;11.90;99.90
18511;DHT22;9384;48.044;11.616;2022-09-04T05:01:15;11.90;99.90
18511;DHT22;9384;48.044;11.616;2022-09-04T05:03:53;12.00;99.90
18511;DHT22;9384;48.044;11.616;2022-09-04T05:06:30;12.00;99.90
18511;DHT22;9384;48.044;11.616;2022-09-04T05:09:10;12.00;99.90
18511;DHT22;9384;48.044;11.616;2022-09-04T05:11:44;12.10;99.90
18511;DHT22;9384;48.044;11.616;2022-09-04T05:14:23;12.10;99.90
18511;DHT22;9384;48.044;11.616;2022-09-04T05:16:56;12.20;99.90
18511;DHT22;9384;48.044;11.616;2022-09-04T05:19:29;12.20;99.90
18511;DHT22;9384;48.044;11.616;2022-09-04T05:22:04;12.20;99.90
18511;DHT22;9384;48.044;11.616;2022-09-04T05:24:42;12.20;99.90
18511;DHT22;9384;48.044;11.616;2022-09-04T05:27:24;12.30;99.90
18511;DHT22;9384;48.044;11.616;2022-09-04T05:29:57;12.30;99.90
18511;DHT22;9384;48.044;11.616;2022-09-04T05:32:31;12.30;99.90
18511;DHT22;9384;48.044;11.616;2022-09-04T05:35:08;12.40;99.90
18511;DHT22;9384;48.044;11.616;2022-09-04T05:37:43;12.40;99.90
18511;DHT22;9384;48.044;11.616;2022-09-04T05:40:25;12.40;99.90
18511;DHT22;9384;48.044;11.616;2022-09-04T05:43:10;12.50;99.90
18511;DHT22;9384;48.044;11.616;2022-09-04T05:45:51;12.60;99.90
18511;DHT22;9384;48.044;11.616;2022-09-04T05:48:26;12.60;99.90
18511;DHT22;9384;48.044;11.616;2022-09-04T05:51:33;12.70;99.90
18511;DHT22;9384;48.044;11.616;2022-09-04T05:54:20;12.70;99.90
18511;DHT22;9384;48.044;11.616;2022-09-04T05:57:00;12.80;99.90
18511;DHT22;9384;48.044;11.616;2022-09-04T05:59:46;12.80;99.90
18511;DHT22;9384;48.044;11.616;2022-09-04T06:05:28;13.00;99.90
18511;DHT22;9384;48.044;11.616;2022-09-04T06:08:02;13.20;99.90
18511;DHT22;9384;48.044;11.616;2022-09-04T06:10:40;13.30;99.90
18511;DHT22;9384;48.044;11.616;2022-09-04T06:13:54;13.40;99.90
18511;DHT22;9384;48.044;11.616;2022-09-04T06:16:40;13.50;99.90
18511;DHT22;9384;48.044;11.616;2022-09-04T06:19:33;13.60;99.90
18511;DHT22;9384;48.044;11.616;2022-09-04T06:25:25;13.90;99.90
18511;DHT22;9384;48.044;11.616;2022-09-04T06:28:23;14.20;99.90
18511;DHT22;9384;48.044;11.616;2022-09-04T06:36:15;14.30;99.90
18511;DHT22;9384;48.044;11.616;2022-09-04T07:30:58;16.80;99.90
18511;DHT22;9384;48.044;11.616;2022-09-04T07:36:05;16.90;99.90
18511;DHT22;9384;48.044;11.616;2022-09-04T07:38:39;17.10;99.90
18511;DHT22;9384;48.044;11.616;2022-09-04T07:43:45;17.10;99.90
